sensor_id;sensor_type;location;lat;lon;timestamp;P1;durP1;ratioP1;P2;durP2;ratioP2
823;SDS011;373;49.342;8.146;2024-02-16T00:02:00;3.75;;;3.15;;
823;SDS011;373;49.342;8.146;2024-02-16T00:04:27;3.65;;;2.80;;
823;SDS011;373;49.342;8.146;2024-02-16T00:06:56;3.25;;;2.95;;
823;SDS011;373;49.342;8.146;2024-02-16T00:09:22;5.72;;;3.30;;
823;SDS011;373;49.342;8.146;2024-02-16T00:11:49;4.75;;;4.25;;
823;SDS011;373;49.342;8.146;2024-02-16T00:14:18;5.35;;;3.28;;
823;SDS011;373;49.342;8.146;2024-02-16T00:16:47;4.82;;;3.00;;
823;SDS011;373;49.342;8.146;2024-02-16T00:19:14;4.60;;;3.38;;
823;SDS011;373;49.342;8.146;2024-02-16T00:21:41;5.22;;;3.90;;
823;SDS011;373;49.342;8.146;2024-02-16T00:24:10;6.05;;;3.92;;
823;SDS011;373;49.342;8.146;2024-02-16T00:26:37;3.78;;;3.38;;
823;SDS011;373;49.342;8.146;2024-02-16T00:29:05;7.00;;;3.75;;
823;SDS011;373;49.342;8.146;2024-02-16T00:31:32;5.68;;;3.60;;
823;SDS011;373;49.342;8.146;2024-02-16T00:33:59;6.22;;;4.10;;
823;SDS011;373;49.342;8.146;2024-02-16T00:36:26;5.03;;;3.95;;
823;SDS011;373;49.342;8.146;2024-02-16T00:38:55;4.95;;;3.90;;
823;SDS011;373;49.342;8.146;2024-02-16T00:41:24;3.85;;;3.55;;
823;SDS011;373;49.342;8.146;2024-02-16T00:43:51;6.78;;;4.35;;
823;SDS011;373;49.342;8.146;2024-02-16T00:46:18;5.43;;;4.30;;
823;SDS011;373;49.342;8.146;2024-02-16T00:48:48;5.65;;;4.40;;
823;SDS011;373;49.342;8.146;2024-02-16T00:51:15;7.03;;;5.15;;
823;SDS011;373;49.342;8.146;2024-02-16T00:53:42;5.00;;;3.63;;
823;SDS011;373;49.342;8.146;2024-02-16T00:56:09;5.55;;;4.10;;
823;SDS011;373;49.342;8.146;2024-02-16T00:58:39;4.38;;;3.65;;
823;SDS011;373;49.342;8.146;2024-02-16T01:01:07;4.28;;;3.83;;
823;SDS011;373;49.342;8.146;2024-02-16T01:03:36;5.72;;;3.78;;
823;SDS011;373;49.342;8.146;2024-02-16T01:06:04;5.55;;;4.38;;
823;SDS011;373;49.342;8.146;2024-02-16T01:08:31;5.25;;;4.22;;
823;SDS011;373;49.342;8.146;2024-02-16T01:10:59;6.05;;;3.70;;
823;SDS011;373;49.342;8.146;2024-02-16T01:13:26;4.65;;;3.47;;
823;SDS011;373;49.342;8.146;2024-02-16T01:15:54;4.05;;;3.47;;
823;SDS011;373;49.342;8.146;2024-02-16T01:18:21;4.68;;;3.70;;
823;SDS011;373;49.342;8.146;2024-02-16T01:20:48;4.93;;;3.50;;
823;SDS011;373;49.342;8.146;2024-02-16T01:23:15;4.57;;;3.22;;
823;SDS011;373;49.342;8.146;2024-02-16T01:25:42;4.07;;;2.95;;
823;SDS011;373;49.342;8.146;2024-02-16T01:28:09;5.43;;;3.40;;
823;SDS011;373;49.342;8.146;2024-02-16T01:30:37;4.38;;;3.75;;
823;SDS011;373;49.342;8.146;2024-02-16T01:33:06;4.07;;;3.25;;
823;SDS011;373;49.342;8.146;2024-02-16T01:35:33;4.13;;;3.42;;
823;SDS011;373;49.342;8.146;2024-02-16T01:38:00;3.58;;;3.13;;
823;SDS011;373;49.342;8.146;2024-02-16T01:40:27;4.07;;;3.67;;
823;SDS011;373;49.342;8.146;2024-02-16T01:42:55;5.38;;;3.70;;
823;SDS011;373;49.342;8.146;2024-02-16T01:45:22;5.55;;;4.10;;
823;SDS011;373;49.342;8.146;2024-02-16T01:47:49;4.95;;;3.88;;
823;SDS011;373;49.342;8.146;2024-02-16T01:50:19;4.88;;;4.03;;
823;SDS011;373;49.342;8.146;2024-02-16T01:52:47;4.55;;;3.92;;
823;SDS011;373;49.342;8.146;2024-02-16T01:55:15;4.72;;;4.28;;
823;SDS011;373;49.342;8.146;2024-02-16T01:57:43;3.95;;;3.58;;
823;SDS011;373;49.342;8.146;2024-02-16T02:00:11;3.90;;;3.50;;
823;SDS011;373;49.342;8.146;2024-02-16T02:02:40;4.40;;;4.00;;
823;SDS011;373;49.342;8.146;2024-02-16T02:05:10;4.20;;;3.80;;
823;SDS011;373;49.342;8.146;2024-02-16T02:07:38;3.92;;;3.30;;
823;SDS011;373;49.342;8.146;2024-02-16T02:10:06;5.38;;;3.70;;
823;SDS011;373;49.342;8.146;2024-02-16T02:12:34;4.38;;;3.90;;
823;SDS011;373;49.342;8.146;2024-02-16T02:15:01;5.55;;;4.22;;
823;SDS011;373;49.342;8.146;2024-02-16T02:17:28;6.05;;;4.30;;
823;SDS011;373;49.342;8.146;2024-02-16T02:19:55;5.78;;;5.18;;
823;SDS011;373;49.342;8.146;2024-02-16T02:22:24;5.88;;;5.07;;
823;SDS011;373;49.342;8.146;2024-02-16T02:24:52;6.00;;;4.28;;
823;SDS011;373;49.342;8.146;2024-02-16T02:27:20;6.78;;;4.82;;
823;SDS011;373;49.342;8.146;2024-02-16T02:29:48;7.63;;;4.70;;
823;SDS011;373;49.342;8.146;2024-02-16T02:32:15;5.38;;;4.57;;
823;SDS011;373;49.342;8.146;2024-02-16T02:34:42;4.90;;;4.15;;
823;SDS011;373;49.342;8.146;2024-02-16T02:37:09;7.13;;;5.00;;
823;SDS011;373;49.342;8.146;2024-02-16T02:39:38;5.70;;;4.05;;
823;SDS011;373;49.342;8.146;2024-02-16T02:42:05;5.00;;;4.07;;
823;SDS011;373;49.342;8.146;2024-02-16T02:44:33;9.27;;;4.22;;
823;SDS011;373;49.342;8.146;2024-02-16T02:47:00;6.00;;;5.40;;
823;SDS011;373;49.342;8.146;2024-02-16T02:49:27;5.68;;;5.07;;
823;SDS011;373;49.342;8.146;2024-02-16T02:54:41;4.63;;;4.05;;
823;SDS011;373;49.342;8.146;2024-02-16T02:57:08;5.25;;;4.63;;
823;SDS011;373;49.342;8.146;2024-02-16T02:59:35;3.95;;;3.65;;
823;SDS011;373;49.342;8.146;2024-02-16T03:02:02;5.25;;;4.50;;
823;SDS011;373;49.342;8.146;2024-02-16T03:04:29;8.18;;;5.30;;
823;SDS011;373;49.342;8.146;2024-02-16T03:06:56;6.28;;;4.60;;
823;SDS011;373;49.342;8.146;2024-02-16T03:09:23;7.28;;;4.75;;
823;SDS011;373;49.342;8.146;2024-02-16T03:11:52;5.63;;;4.22;;
823;SDS011;373;49.342;8.146;2024-02-16T03:14:19;6.30;;;4.47;;
823;SDS011;373;49.342;8.146;2024-02-16T03:16:46;5.40;;;4.45;;
823;SDS011;373;49.342;8.146;2024-02-16T03:19:13;4.95;;;4.22;;
823;SDS011;373;49.342;8.146;2024-02-16T03:21:40;4.82;;;4.32;;
823;SDS011;373;49.342;8.146;2024-02-16T03:24:07;5.85;;;4.68;;
823;SDS011;373;49.342;8.146;2024-02-16T03:26:34;5.60;;;4.00;;
823;SDS011;373;49.342;8.146;2024-02-16T03:29:02;6.15;;;4.32;;
823;SDS011;373;49.342;8.146;2024-02-16T03:31:29;5.68;;;4.40;;
823;SDS011;373;49.342;8.146;2024-02-16T03:33:58;7.70;;;4.45;;
823;SDS011;373;49.342;8.146;2024-02-16T03:36:25;6.55;;;4.72;;
823;SDS011;373;49.342;8.146;2024-02-16T03:38:52;5.93;;;5.32;;
823;SDS011;373;49.342;8.146;2024-02-16T03:41:20;5.53;;;4.75;;
823;SDS011;373;49.342;8.146;2024-02-16T03:43:48;7.78;;;4.43;;
823;SDS011;373;49.342;8.146;2024-02-16T03:46:16;5.18;;;4.65;;
823;SDS011;373;49.342;8.146;2024-02-16T03:48:43;7.50;;;5.35;;
823;SDS011;373;49.342;8.146;2024-02-16T03:51:11;6.90;;;5.28;;
823;SDS011;373;49.342;8.146;2024-02-16T03:53:38;6.68;;;5.28;;
823;SDS011;373;49.342;8.146;2024-02-16T03:56:05;6.70;;;5.20;;
823;SDS011;373;49.342;8.146;2024-02-16T03:58:32;5.43;;;4.25;;
823;SDS011;373;49.342;8.146;2024-02-16T04:00:59;5.63;;;4.78;;
823;SDS011;373;49.342;8.146;2024-02-16T04:03:28;5.15;;;4.65;;
823;SDS011;373;49.342;8.146;2024-02-16T04:05:55;5.40;;;4.90;;
823;SDS011;373;49.342;8.146;2024-02-16T04:08:22;8.27;;;5.10;;
823;SDS011;373;49.342;8.146;2024-02-16T04:10:49;6.00;;;4.72;;
823;SDS011;373;49.342;8.146;2024-02-16T04:13:16;8.07;;;5.22;;
823;SDS011;373;49.342;8.146;2024-02-16T04:15:43;4.60;;;4.15;;
823;SDS011;373;49.342;8.146;2024-02-16T04:18:10;5.28;;;4.50;;
823;SDS011;373;49.342;8.146;2024-02-16T04:20:38;7.63;;;5.57;;
823;SDS011;373;49.342;8.146;2024-02-16T04:23:06;6.15;;;4.93;;
823;SDS011;373;49.342;8.146;2024-02-16T04:25:33;5.93;;;4.97;;
823;SDS011;373;49.342;8.146;2024-02-16T04:28:00;5.38;;;4.43;;
823;SDS011;373;49.342;8.146;2024-02-16T04:30:27;4.57;;;4.18;;
823;SDS011;373;49.342;8.146;2024-02-16T04:32:54;5.35;;;4.07;;
823;SDS011;373;49.342;8.146;2024-02-16T04:35:21;5.13;;;4.72;;
823;SDS011;373;49.342;8.146;2024-02-16T04:37:50;5.38;;;4.85;;
823;SDS011;373;49.342;8.146;2024-02-16T04:40:17;6.30;;;4.57;;
823;SDS011;373;49.342;8.146;2024-02-16T04:42:44;5.07;;;4.57;;
823;SDS011;373;49.342;8.146;2024-02-16T04:45:11;5.05;;;4.53;;
823;SDS011;373;49.342;8.146;2024-02-16T04:47:38;4.55;;;3.97;;
823;SDS011;373;49.342;8.146;2024-02-16T04:50:06;6.00;;;4.40;;
823;SDS011;373;49.342;8.146;2024-02-16T04:52:35;4.15;;;3.58;;
823;SDS011;373;49.342;8.146;2024-02-16T04:55:06;5.15;;;4.35;;
823;SDS011;373;49.342;8.146;2024-02-16T04:57:34;5.28;;;4.43;;
823;SDS011;373;49.342;8.146;2024-02-16T05:00:01;7.55;;;4.97;;
823;SDS011;373;49.342;8.146;2024-02-16T05:02:29;6.10;;;4.30;;
823;SDS011;373;49.342;8.146;2024-02-16T05:04:56;5.18;;;4.55;;
823;SDS011;373;49.342;8.146;2024-02-16T05:07:23;5.22;;;4.13;;
823;SDS011;373;49.342;8.146;2024-02-16T05:09:50;5.20;;;4.32;;
823;SDS011;373;49.342;8.146;2024-02-16T05:12:22;6.13;;;4.60;;
823;SDS011;373;49.342;8.146;2024-02-16T05:14:50;5.13;;;4.53;;
823;SDS011;373;49.342;8.146;2024-02-16T05:17:18;5.43;;;4.85;;
823;SDS011;373;49.342;8.146;2024-02-16T05:19:46;5.97;;;4.50;;
823;SDS011;373;49.342;8.146;2024-02-16T05:22:13;6.30;;;4.55;;
823;SDS011;373;49.342;8.146;2024-02-16T05:24:40;5.90;;;4.65;;
823;SDS011;373;49.342;8.146;2024-02-16T05:27:07;5.97;;;4.70;;
823;SDS011;373;49.342;8.146;2024-02-16T05:29:37;8.13;;;4.75;;
823;SDS011;373;49.342;8.146;2024-02-16T05:32:04;7.22;;;4.47;;
823;SDS011;373;49.342;8.146;2024-02-16T05:34:31;5.13;;;4.45;;
823;SDS011;373;49.342;8.146;2024-02-16T05:37:03;8.95;;;4.93;;
823;SDS011;373;49.342;8.146;2024-02-16T05:39:31;6.60;;;4.45;;
823;SDS011;373;49.342;8.146;2024-02-16T05:42:00;7.47;;;5.18;;
823;SDS011;373;49.342;8.146;2024-02-16T05:44:28;8.07;;;4.80;;
823;SDS011;373;49.342;8.146;2024-02-16T05:46:59;4.65;;;4.25;;
823;SDS011;373;49.342;8.146;2024-02-16T05:49:26;5.25;;;4.75;;
823;SDS011;373;49.342;8.146;2024-02-16T05:51:53;6.00;;;4.40;;
823;SDS011;373;49.342;8.146;2024-02-16T05:54:38;6.18;;;4.20;;
823;SDS011;373;49.342;8.146;2024-02-16T05:57:05;6.50;;;5.00;;
823;SDS011;373;49.342;8.146;2024-02-16T05:59:34;5.82;;;4.18;;
823;SDS011;373;49.342;8.146;2024-02-16T06:02:04;4.90;;;4.13;;
823;SDS011;373;49.342;8.146;2024-02-16T06:04:32;5.20;;;4.63;;
823;SDS011;373;49.342;8.146;2024-02-16T06:07:00;6.57;;;4.68;;
823;SDS011;373;49.342;8.146;2024-02-16T06:09:27;5.10;;;4.63;;
823;SDS011;373;49.342;8.146;2024-02-16T06:12:01;5.28;;;4.68;;
823;SDS011;373;49.342;8.146;2024-02-16T06:14:30;6.65;;;5.25;;
823;SDS011;373;49.342;8.146;2024-02-16T06:16:57;6.93;;;4.78;;
823;SDS011;373;49.342;8.146;2024-02-16T06:19:26;5.13;;;4.63;;
823;SDS011;373;49.342;8.146;2024-02-16T06:21:53;6.15;;;5.53;;
823;SDS011;373;49.342;8.146;2024-02-16T06:24:20;7.55;;;5.25;;
823;SDS011;373;49.342;8.146;2024-02-16T06:26:48;5.63;;;4.93;;
823;SDS011;373;49.342;8.146;2024-02-16T06:29:15;9.05;;;6.70;;
823;SDS011;373;49.342;8.146;2024-02-16T06:31:42;9.77;;;6.85;;
823;SDS011;373;49.342;8.146;2024-02-16T06:34:09;7.68;;;5.95;;
823;SDS011;373;49.342;8.146;2024-02-16T06:36:37;7.25;;;5.20;;
823;SDS011;373;49.342;8.146;2024-02-16T06:39:05;5.38;;;4.78;;
823;SDS011;373;49.342;8.146;2024-02-16T06:41:32;6.45;;;5.68;;
823;SDS011;373;49.342;8.146;2024-02-16T06:43:59;7.15;;;5.45;;
823;SDS011;373;49.342;8.146;2024-02-16T06:46:26;8.73;;;5.72;;
823;SDS011;373;49.342;8.146;2024-02-16T06:48:54;6.22;;;5.57;;
823;SDS011;373;49.342;8.146;2024-02-16T06:51:22;6.93;;;4.72;;
823;SDS011;373;49.342;8.146;2024-02-16T06:53:51;5.90;;;5.10;;
823;SDS011;373;49.342;8.146;2024-02-16T06:56:18;6.70;;;5.47;;
823;SDS011;373;49.342;8.146;2024-02-16T06:58:46;6.40;;;5.13;;
823;SDS011;373;49.342;8.146;2024-02-16T07:01:13;6.93;;;5.68;;
823;SDS011;373;49.342;8.146;2024-02-16T07:03:40;6.05;;;5.43;;
823;SDS011;373;49.342;8.146;2024-02-16T07:06:09;6.63;;;5.70;;
823;SDS011;373;49.342;8.146;2024-02-16T07:08:39;6.88;;;6.20;;
823;SDS011;373;49.342;8.146;2024-02-16T07:11:07;6.47;;;5.80;;
823;SDS011;373;49.342;8.146;2024-02-16T07:13:37;6.10;;;5.47;;
823;SDS011;373;49.342;8.146;2024-02-16T07:16:05;7.65;;;6.35;;
823;SDS011;373;49.342;8.146;2024-02-16T07:18:33;7.70;;;6.50;;
823;SDS011;373;49.342;8.146;2024-02-16T07:23:36;7.82;;;6.00;;
823;SDS011;373;49.342;8.146;2024-02-16T07:26:10;6.78;;;5.97;;
823;SDS011;373;49.342;8.146;2024-02-16T07:28:38;8.35;;;6.80;;
823;SDS011;373;49.342;8.146;2024-02-16T07:31:05;6.85;;;5.57;;
823;SDS011;373;49.342;8.146;2024-02-16T07:33:33;6.70;;;6.00;;
823;SDS011;373;49.342;8.146;2024-02-16T07:36:00;7.03;;;6.30;;
823;SDS011;373;49.342;8.146;2024-02-16T07:38:27;10.35;;;9.35;;
823;SDS011;373;49.342;8.146;2024-02-16T07:40:54;11.90;;;10.80;;
823;SDS011;373;49.342;8.146;2024-02-16T07:43:23;9.00;;;8.10;;
823;SDS011;373;49.342;8.146;2024-02-16T07:45:50;7.90;;;7.13;;
823;SDS011;373;49.342;8.146;2024-02-16T07:48:19;7.25;;;6.55;;
823;SDS011;373;49.342;8.146;2024-02-16T07:50:46;7.82;;;6.50;;
823;SDS011;373;49.342;8.146;2024-02-16T07:53:15;10.48;;;8.13;;
823;SDS011;373;49.342;8.146;2024-02-16T07:55:43;10.82;;;7.72;;
823;SDS011;373;49.342;8.146;2024-02-16T07:58:10;9.63;;;7.18;;
823;SDS011;373;49.342;8.146;2024-02-16T08:00:39;9.07;;;8.18;;
823;SDS011;373;49.342;8.146;2024-02-16T08:03:06;11.20;;;7.65;;
823;SDS011;373;49.342;8.146;2024-02-16T08:05:34;8.27;;;6.90;;
823;SDS011;373;49.342;8.146;2024-02-16T08:08:01;9.18;;;6.95;;
823;SDS011;373;49.342;8.146;2024-02-16T08:10:28;7.45;;;6.72;;
823;SDS011;373;49.342;8.146;2024-02-16T08:12:55;9.55;;;7.57;;
823;SDS011;373;49.342;8.146;2024-02-16T08:15:22;12.82;;;7.60;;
823;SDS011;373;49.342;8.146;2024-02-16T08:17:52;11.13;;;7.75;;
823;SDS011;373;49.342;8.146;2024-02-16T08:20:22;10.00;;;6.45;;
823;SDS011;373;49.342;8.146;2024-02-16T08:22:49;7.70;;;6.68;;
823;SDS011;373;49.342;8.146;2024-02-16T08:25:16;8.50;;;6.75;;
823;SDS011;373;49.342;8.146;2024-02-16T08:27:43;9.30;;;6.78;;
823;SDS011;373;49.342;8.146;2024-02-16T08:30:11;8.88;;;6.88;;
823;SDS011;373;49.342;8.146;2024-02-16T08:32:39;8.00;;;7.10;;
823;SDS011;373;49.342;8.146;2024-02-16T08:35:08;8.52;;;7.35;;
823;SDS011;373;49.342;8.146;2024-02-16T08:37:35;8.23;;;7.43;;
823;SDS011;373;49.342;8.146;2024-02-16T08:40:02;8.75;;;7.22;;
823;SDS011;373;49.342;8.146;2024-02-16T08:42:30;8.07;;;7.30;;
823;SDS011;373;49.342;8.146;2024-02-16T08:44:57;10.45;;;8.35;;
823;SDS011;373;49.342;8.146;2024-02-16T08:47:25;9.15;;;7.32;;
823;SDS011;373;49.342;8.146;2024-02-16T08:49:53;8.23;;;7.10;;
823;SDS011;373;49.342;8.146;2024-02-16T08:52:21;7.80;;;6.88;;
823;SDS011;373;49.342;8.146;2024-02-16T08:54:48;9.43;;;6.95;;
823;SDS011;373;49.342;8.146;2024-02-16T08:57:15;7.60;;;6.70;;
823;SDS011;373;49.342;8.146;2024-02-16T08:59:43;8.50;;;7.00;;
823;SDS011;373;49.342;8.146;2024-02-16T09:02:11;14.52;;;7.82;;
823;SDS011;373;49.342;8.146;2024-02-16T09:04:38;7.47;;;6.68;;
823;SDS011;373;49.342;8.146;2024-02-16T09:07:05;6.90;;;6.22;;
823;SDS011;373;49.342;8.146;2024-02-16T09:09:34;7.22;;;6.53;;
823;SDS011;373;49.342;8.146;2024-02-16T09:12:02;7.88;;;6.30;;
823;SDS011;373;49.342;8.146;2024-02-16T09:14:29;6.68;;;6.03;;
823;SDS011;373;49.342;8.146;2024-02-16T09:16:57;8.10;;;6.05;;
823;SDS011;373;49.342;8.146;2024-02-16T09:19:24;5.40;;;4.82;;
823;SDS011;373;49.342;8.146;2024-02-16T09:21:51;5.72;;;4.40;;
823;SDS011;373;49.342;8.146;2024-02-16T09:24:19;8.02;;;4.88;;
823;SDS011;373;49.342;8.146;2024-02-16T09:26:48;4.72;;;3.58;;
823;SDS011;373;49.342;8.146;2024-02-16T09:29:15;5.57;;;3.85;;
823;SDS011;373;49.342;8.146;2024-02-16T09:31:43;5.20;;;3.75;;
823;SDS011;373;49.342;8.146;2024-02-16T09:34:10;3.65;;;3.35;;
823;SDS011;373;49.342;8.146;2024-02-16T09:36:37;3.63;;;3.08;;
823;SDS011;373;49.342;8.146;2024-02-16T09:39:04;5.25;;;2.45;;
823;SDS011;373;49.342;8.146;2024-02-16T09:41:32;3.13;;;2.00;;
823;SDS011;373;49.342;8.146;2024-02-16T09:44:03;2.53;;;2.00;;
823;SDS011;373;49.342;8.146;2024-02-16T09:46:31;4.60;;;2.40;;
823;SDS011;373;49.342;8.146;2024-02-16T09:49:00;3.20;;;1.92;;
823;SDS011;373;49.342;8.146;2024-02-16T09:51:35;3.03;;;1.83;;
823;SDS011;373;49.342;8.146;2024-02-16T09:54:03;3.42;;;1.77;;
823;SDS011;373;49.342;8.146;2024-02-16T09:56:32;4.15;;;1.55;;
823;SDS011;373;49.342;8.146;2024-02-16T09:58:59;3.72;;;1.92;;
823;SDS011;373;49.342;8.146;2024-02-16T10:01:28;2.28;;;1.90;;
823;SDS011;373;49.342;8.146;2024-02-16T10:03:59;3.67;;;1.80;;
823;SDS011;373;49.342;8.146;2024-02-16T10:06:33;3.80;;;1.73;;
823;SDS011;373;49.342;8.146;2024-02-16T10:09:02;4.35;;;2.10;;
823;SDS011;373;49.342;8.146;2024-02-16T10:11:32;2.42;;;1.70;;
823;SDS011;373;49.342;8.146;2024-02-16T10:14:04;1.50;;;1.20;;
823;SDS011;373;49.342;8.146;2024-02-16T10:16:32;3.38;;;2.05;;
823;SDS011;373;49.342;8.146;2024-02-16T10:19:04;2.80;;;1.55;;
823;SDS011;373;49.342;8.146;2024-02-16T10:21:31;2.22;;;1.73;;
823;SDS011;373;49.342;8.146;2024-02-16T10:24:03;5.25;;;2.25;;
823;SDS011;373;49.342;8.146;2024-02-16T10:26:33;3.42;;;1.63;;
823;SDS011;373;49.342;8.146;2024-02-16T10:29:05;3.72;;;1.65;;
823;SDS011;373;49.342;8.146;2024-02-16T10:31:37;3.22;;;1.75;;
823;SDS011;373;49.342;8.146;2024-02-16T10:34:12;3.20;;;1.73;;
823;SDS011;373;49.342;8.146;2024-02-16T10:36:44;2.10;;;1.63;;
823;SDS011;373;49.342;8.146;2024-02-16T10:39:14;5.05;;;1.40;;
823;SDS011;373;49.342;8.146;2024-02-16T10:41:48;2.60;;;1.60;;
823;SDS011;373;49.342;8.146;2024-02-16T10:44:19;3.67;;;1.80;;
823;SDS011;373;49.342;8.146;2024-02-16T10:46:49;1.77;;;1.55;;
823;SDS011;373;49.342;8.146;2024-02-16T10:49:17;3.92;;;1.70;;
823;SDS011;373;49.342;8.146;2024-02-16T10:51:46;1.95;;;1.60;;
823;SDS011;373;49.342;8.146;2024-02-16T10:54:17;2.80;;;1.63;;
823;SDS011;373;49.342;8.146;2024-02-16T10:56:49;3.55;;;1.85;;
823;SDS011;373;49.342;8.146;2024-02-16T10:59:22;4.47;;;2.22;;
823;SDS011;373;49.342;8.146;2024-02-16T11:02:00;3.00;;;2.10;;
823;SDS011;373;49.342;8.146;2024-02-16T11:04:35;5.90;;;1.88;;
823;SDS011;373;49.342;8.146;2024-02-16T11:07:10;2.17;;;1.45;;
823;SDS011;373;49.342;8.146;2024-02-16T11:09:44;3.83;;;1.70;;
823;SDS011;373;49.342;8.146;2024-02-16T11:12:13;4.97;;;1.83;;
823;SDS011;373;49.342;8.146;2024-02-16T11:14:43;1.80;;;1.25;;
823;SDS011;373;49.342;8.146;2024-02-16T11:17:16;3.30;;;2.08;;
823;SDS011;373;49.342;8.146;2024-02-16T11:19:47;3.67;;;1.90;;
823;SDS011;373;49.342;8.146;2024-02-16T11:22:16;2.22;;;1.60;;
823;SDS011;373;49.342;8.146;2024-02-16T11:24:44;3.65;;;1.77;;
823;SDS011;373;49.342;8.146;2024-02-16T11:27:13;3.38;;;1.60;;
823;SDS011;373;49.342;8.146;2024-02-16T11:29:47;3.03;;;1.60;;
823;SDS011;373;49.342;8.146;2024-02-16T11:32:17;2.65;;;1.55;;
823;SDS011;373;49.342;8.146;2024-02-16T11:34:45;3.17;;;1.80;;
823;SDS011;373;49.342;8.146;2024-02-16T11:37:12;3.17;;;1.95;;
823;SDS011;373;49.342;8.146;2024-02-16T11:39:41;4.00;;;1.55;;
823;SDS011;373;49.342;8.146;2024-02-16T11:42:11;2.97;;;1.50;;
823;SDS011;373;49.342;8.146;2024-02-16T11:44:40;2.30;;;1.60;;
823;SDS011;373;49.342;8.146;2024-02-16T11:47:19;2.17;;;1.30;;
823;SDS011;373;49.342;8.146;2024-02-16T11:49:59;3.08;;;1.85;;
823;SDS011;373;49.342;8.146;2024-02-16T11:52:27;3.97;;;1.75;;
823;SDS011;373;49.342;8.146;2024-02-16T11:54:56;2.78;;;1.70;;
823;SDS011;373;49.342;8.146;2024-02-16T11:57:26;3.17;;;1.88;;
823;SDS011;373;49.342;8.146;2024-02-16T11:59:53;3.78;;;1.75;;
823;SDS011;373;49.342;8.146;2024-02-16T12:02:23;2.63;;;1.48;;
823;SDS011;373;49.342;8.146;2024-02-16T12:04:57;5.07;;;1.80;;
823;SDS011;373;49.342;8.146;2024-02-16T12:07:25;3.13;;;1.73;;
823;SDS011;373;49.342;8.146;2024-02-16T12:09:57;3.92;;;1.77;;
823;SDS011;373;49.342;8.146;2024-02-16T12:12:24;2.88;;;1.38;;
823;SDS011;373;49.342;8.146;2024-02-16T12:14:52;3.47;;;1.80;;
823;SDS011;373;49.342;8.146;2024-02-16T12:17:20;4.03;;;1.77;;
823;SDS011;373;49.342;8.146;2024-02-16T12:19:49;2.60;;;1.70;;
823;SDS011;373;49.342;8.146;2024-02-16T12:22:18;5.28;;;1.80;;
823;SDS011;373;49.342;8.146;2024-02-16T12:24:47;2.33;;;2.00;;
823;SDS011;373;49.342;8.146;2024-02-16T12:27:15;2.38;;;1.30;;
823;SDS011;373;49.342;8.146;2024-02-16T12:29:42;4.22;;;1.80;;
823;SDS011;373;49.342;8.146;2024-02-16T12:32:10;2.03;;;1.15;;
823;SDS011;373;49.342;8.146;2024-02-16T12:34:37;2.55;;;1.38;;
823;SDS011;373;49.342;8.146;2024-02-16T12:37:07;3.78;;;1.80;;
823;SDS011;373;49.342;8.146;2024-02-16T12:39:36;3.63;;;1.58;;
823;SDS011;373;49.342;8.146;2024-02-16T12:42:06;3.20;;;1.70;;
823;SDS011;373;49.342;8.146;2024-02-16T12:44:33;1.90;;;1.30;;
823;SDS011;373;49.342;8.146;2024-02-16T12:47:00;3.10;;;1.40;;
823;SDS011;373;49.342;8.146;2024-02-16T12:49:31;2.42;;;1.30;;
823;SDS011;373;49.342;8.146;2024-02-16T12:52:01;4.40;;;1.52;;
823;SDS011;373;49.342;8.146;2024-02-16T12:54:29;4.80;;;1.13;;
823;SDS011;373;49.342;8.146;2024-02-16T12:56:57;2.35;;;1.33;;
823;SDS011;373;49.342;8.146;2024-02-16T12:59:24;1.70;;;1.50;;
823;SDS011;373;49.342;8.146;2024-02-16T13:01:51;1.70;;;1.60;;
823;SDS011;373;49.342;8.146;2024-02-16T13:04:18;2.22;;;1.23;;
823;SDS011;373;49.342;8.146;2024-02-16T13:06:48;3.42;;;1.95;;
823;SDS011;373;49.342;8.146;2024-02-16T13:09:17;1.45;;;1.20;;
823;SDS011;373;49.342;8.146;2024-02-16T13:11:46;4.22;;;1.83;;
823;SDS011;373;49.342;8.146;2024-02-16T13:14:19;2.75;;;1.60;;
823;SDS011;373;49.342;8.146;2024-02-16T13:16:46;3.55;;;1.63;;
823;SDS011;373;49.342;8.146;2024-02-16T13:19:14;3.20;;;1.73;;
823;SDS011;373;49.342;8.146;2024-02-16T13:21:43;2.10;;;1.75;;
823;SDS011;373;49.342;8.146;2024-02-16T13:24:10;2.70;;;1.48;;
823;SDS011;373;49.342;8.146;2024-02-16T13:26:38;4.80;;;1.23;;
823;SDS011;373;49.342;8.146;2024-02-16T13:29:06;1.95;;;1.30;;
823;SDS011;373;49.342;8.146;2024-02-16T13:31:33;3.03;;;1.60;;
823;SDS011;373;49.342;8.146;2024-02-16T13:34:00;2.38;;;1.60;;
823;SDS011;373;49.342;8.146;2024-02-16T13:36:31;1.90;;;1.25;;
823;SDS011;373;49.342;8.146;2024-02-16T13:38:58;4.20;;;1.50;;
823;SDS011;373;49.342;8.146;2024-02-16T13:41:25;1.85;;;1.17;;
823;SDS011;373;49.342;8.146;2024-02-16T13:43:52;5.38;;;1.73;;
823;SDS011;373;49.342;8.146;2024-02-16T13:46:21;2.88;;;1.83;;
823;SDS011;373;49.342;8.146;2024-02-16T13:48:48;3.15;;;1.70;;
823;SDS011;373;49.342;8.146;2024-02-16T13:51:16;3.22;;;1.90;;
823;SDS011;373;49.342;8.146;2024-02-16T13:53:43;2.15;;;1.40;;
823;SDS011;373;49.342;8.146;2024-02-16T13:56:10;4.43;;;1.92;;
823;SDS011;373;49.342;8.146;2024-02-16T13:58:37;2.03;;;1.70;;
823;SDS011;373;49.342;8.146;2024-02-16T14:01:05;2.47;;;1.02;;
823;SDS011;373;49.342;8.146;2024-02-16T14:03:34;2.60;;;1.20;;
823;SDS011;373;49.342;8.146;2024-02-16T14:06:03;2.03;;;1.75;;
823;SDS011;373;49.342;8.146;2024-02-16T14:08:33;2.88;;;1.55;;
823;SDS011;373;49.342;8.146;2024-02-16T14:11:00;2.40;;;1.50;;
823;SDS011;373;49.342;8.146;2024-02-16T14:13:27;2.40;;;1.70;;
823;SDS011;373;49.342;8.146;2024-02-16T14:15:55;3.45;;;1.50;;
823;SDS011;373;49.342;8.146;2024-02-16T14:18:22;3.20;;;1.60;;
823;SDS011;373;49.342;8.146;2024-02-16T14:20:51;2.63;;;1.65;;
823;SDS011;373;49.342;8.146;2024-02-16T14:23:18;3.83;;;1.75;;
823;SDS011;373;49.342;8.146;2024-02-16T14:25:45;1.65;;;1.23;;
823;SDS011;373;49.342;8.146;2024-02-16T14:28:13;2.03;;;1.50;;
823;SDS011;373;49.342;8.146;2024-02-16T14:30:40;2.63;;;1.30;;
823;SDS011;373;49.342;8.146;2024-02-16T14:33:07;3.03;;;1.48;;
823;SDS011;373;49.342;8.146;2024-02-16T14:35:35;3.78;;;1.67;;
823;SDS011;373;49.342;8.146;2024-02-16T14:38:04;2.25;;;1.50;;
823;SDS011;373;49.342;8.146;2024-02-16T14:40:31;3.70;;;1.60;;
823;SDS011;373;49.342;8.146;2024-02-16T14:42:59;2.58;;;1.58;;
823;SDS011;373;49.342;8.146;2024-02-16T14:45:27;2.22;;;1.73;;
823;SDS011;373;49.342;8.146;2024-02-16T14:47:54;2.65;;;1.63;;
823;SDS011;373;49.342;8.146;2024-02-16T14:50:21;3.28;;;1.60;;
823;SDS011;373;49.342;8.146;2024-02-16T14:52:49;3.58;;;1.60;;
823;SDS011;373;49.342;8.146;2024-02-16T14:55:17;2.42;;;1.27;;
823;SDS011;373;49.342;8.146;2024-02-16T14:57:45;2.50;;;1.67;;
823;SDS011;373;49.342;8.146;2024-02-16T15:00:12;1.83;;;1.40;;
823;SDS011;373;49.342;8.146;2024-02-16T15:02:40;1.83;;;1.15;;
823;SDS011;373;49.342;8.146;2024-02-16T15:05:08;2.47;;;1.60;;
823;SDS011;373;49.342;8.146;2024-02-16T15:07:35;1.98;;;1.27;;
823;SDS011;373;49.342;8.146;2024-02-16T15:10:03;2.55;;;1.60;;
823;SDS011;373;49.342;8.146;2024-02-16T15:12:31;3.08;;;1.60;;
823;SDS011;373;49.342;8.146;2024-02-16T15:14:58;2.50;;;1.20;;
823;SDS011;373;49.342;8.146;2024-02-16T15:17:26;2.60;;;1.42;;
823;SDS011;373;49.342;8.146;2024-02-16T15:19:53;1.55;;;1.45;;
823;SDS011;373;49.342;8.146;2024-02-16T15:22:20;3.08;;;1.50;;
823;SDS011;373;49.342;8.146;2024-02-16T15:24:48;3.50;;;1.92;;
823;SDS011;373;49.342;8.146;2024-02-16T15:27:15;2.10;;;1.42;;
823;SDS011;373;49.342;8.146;2024-02-16T15:29:43;1.63;;;1.20;;
823;SDS011;373;49.342;8.146;2024-02-16T15:32:11;2.47;;;1.38;;
823;SDS011;373;49.342;8.146;2024-02-16T15:34:38;1.20;;;1.02;;
823;SDS011;373;49.342;8.146;2024-02-16T15:37:08;2.47;;;1.20;;
823;SDS011;373;49.342;8.146;2024-02-16T15:39:35;1.98;;;1.50;;
823;SDS011;373;49.342;8.146;2024-02-16T15:42:05;3.20;;;1.40;;
823;SDS011;373;49.342;8.146;2024-02-16T15:44:33;2.47;;;1.33;;
823;SDS011;373;49.342;8.146;2024-02-16T15:47:02;1.55;;;1.25;;
823;SDS011;373;49.342;8.146;2024-02-16T15:49:29;2.88;;;1.52;;
823;SDS011;373;49.342;8.146;2024-02-16T15:51:56;1.60;;;1.27;;
823;SDS011;373;49.342;8.146;2024-02-16T15:54:23;2.00;;;1.52;;
823;SDS011;373;49.342;8.146;2024-02-16T15:56:51;2.72;;;1.30;;